Time;durP1;ratioP1;P1;durP2;ratioP2;P2;SDS_P1;SDS_P2;PMS_P1;PMS_P2;Temp;Humidity;BMP_temperature;BMP_pressure;BME280_temperature;BME280_humidity;BME280_pressure;Samples;Min_cycle;Max_cycle;Signal;HPM_P1;HPM_P2
2023/06/21 00:00:30;;;;;;;972.87;904.53;;;;;;;;;;4998566;28;20488;-61
2023/06/21 00:02:56;;;;;;;976.20;907.67;;;;;;;;;;5012546;28;20039;-62
2023/06/21 00:05:21;;;;;;;974.90;906.10;;;;;;;;;;5011002;28;20038;-62
2023/06/21 00:07:48;;;;;;;977.77;908.80;;;;;;;;;;5011535;28;20080;-61
2023/06/21 00:10:13;;;;;;;966.93;898.47;;;;;;;;;;4993100;28;20037;-61
2023/06/21 00:12:39;;;;;;;972.43;903.67;;;;;;;;;;5011545;28;20033;-62
2023/06/21 00:15:04;;;;;;;966.67;898.33;;;;;;;;;;5010578;28;20079;-62
2023/06/21 00:17:30;;;;;;;970.43;901.73;;;;;;;;;;5010743;28;20440;-63
2023/06/21 00:19:55;;;;;;;963.90;895.70;;;;;;;;;;5010880;28;20108;-62
2023/06/21 00:22:22;;;;;;;964.13;896.13;;;;;;;;;;5011462;28;20424;-62
2023/06/21 00:24:51;;;;;;;966.57;898.43;;;;;;;;;;5010941;28;20041;-62
2023/06/21 00:27:17;;;;;;;961.57;893.57;;;;;;;;;;5010646;28;20119;-63
2023/06/21 00:29:42;;;;;;;966.80;898.60;;;;;;;;;;5008739;28;20932;-63
2023/06/21 00:32:08;;;;;;;966.80;898.83;;;;;;;;;;5003250;28;20586;-63
2023/06/21 00:34:34;;;;;;;957.73;889.70;;;;;;;;;;4993707;28;20045;-62
2023/06/21 00:37:02;;;;;;;956.77;889.03;;;;;;;;;;4996330;28;20071;-61
2023/06/21 00:39:28;;;;;;;965.07;897.03;;;;;;;;;;5008607;28;20498;-62
2023/06/21 00:41:54;;;;;;;952.53;884.70;;;;;;;;;;5012036;28;20042;-62
2023/06/21 00:44:19;;;;;;;956.80;888.80;;;;;;;;;;5001232;28;20439;-63
2023/06/21 00:46:45;;;;;;;956.90;888.80;;;;;;;;;;4993497;28;20424;-62
2023/06/21 00:49:10;;;;;;;956.63;888.93;;;;;;;;;;4981337;28;20039;-62
2023/06/21 00:51:38;;;;;;;959.47;891.37;;;;;;;;;;5011462;28;20059;-60
2023/06/21 00:54:05;;;;;;;955.37;887.57;;;;;;;;;;5011561;28;20056;-61
2023/06/21 00:56:33;;;;;;;961.33;893.33;;;;;;;;;;4994482;28;20048;-61
2023/06/21 00:59:04;;;;;;;960.00;892.00;;;;;;;;;;5002490;28;21047;-62
2023/06/21 01:01:30;;;;;;;958.77;891.00;;;;;;;;;;5010373;28;20120;-62
2023/06/21 01:03:57;;;;;;;958.17;890.30;;;;;;;;;;5009957;28;20128;-61
2023/06/21 01:06:35;;;;;;;954.33;886.67;;;;;;;;;;5010940;28;20136;-62
2023/06/21 01:09:03;;;;;;;961.30;893.37;;;;;;;;;;4994836;28;20036;-61
2023/06/21 01:11:31;;;;;;;959.60;891.43;;;;;;;;;;5010496;28;20112;-63
2023/06/21 01:14:02;;;;;;;969.87;901.33;;;;;;;;;;5010619;28;20109;-62
2023/06/21 01:16:39;;;;;;;957.70;889.63;;;;;;;;;;5006959;28;20838;-62
2023/06/21 01:19:06;;;;;;;958.67;890.37;;;;;;;;;;5005796;28;20041;-61
2023/06/21 01:21:32;;;;;;;963.30;895.33;;;;;;;;;;5010345;28;20121;-61
2023/06/21 01:24:18;;;;;;;963.63;894.87;;;;;;;;;;5011104;28;20041;-62
2023/06/21 01:26:54;;;;;;;959.87;892.13;;;;;;;;;;5009343;28;20042;-62
2023/06/21 01:29:30;;;;;;;948.00;880.45;;;;;;;;;;5011101;28;20040;-62
2023/06/21 01:31:57;;;;;;;957.70;889.73;;;;;;;;;;5009703;28;20491;-62
2023/06/21 01:34:24;;;;;;;958.80;891.00;;;;;;;;;;4996362;28;20036;-62
2023/06/21 01:36:49;;;;;;;955.67;887.87;;;;;;;;;;5010816;28;20025;-63
2023/06/21 01:39:15;;;;;;;952.07;884.20;;;;;;;;;;4995678;28;20060;-62
2023/06/21 01:41:40;;;;;;;957.90;889.87;;;;;;;;;;5010345;28;20393;-62
2023/06/21 01:44:09;;;;;;;961.17;893.20;;;;;;;;;;5011227;28;20033;-62
2023/06/21 01:46:35;;;;;;;962.97;895.03;;;;;;;;;;4997115;28;20132;-62
2023/06/21 01:49:02;;;;;;;963.73;895.93;;;;;;;;;;5010452;28;20467;-61
2023/06/21 01:51:28;;;;;;;955.87;888.57;;;;;;;;;;5011017;28;20064;-62
2023/06/21 01:53:54;;;;;;;965.40;897.37;;;;;;;;;;4998180;28;20046;-62
2023/06/21 01:56:21;;;;;;;969.47;901.70;;;;;;;;;;5010770;28;20383;-62
2023/06/21 01:58:48;;;;;;;970.83;902.90;;;;;;;;;;5001359;28;20026;-62
2023/06/21 02:01:15;;;;;;;971.17;903.27;;;;;;;;;;5001381;28;20527;-62
2023/06/21 02:03:43;;;;;;;972.00;903.87;;;;;;;;;;4995549;28;20038;-62
2023/06/21 02:06:11;;;;;;;971.90;903.97;;;;;;;;;;4994087;28;20108;-62
2023/06/21 02:08:37;;;;;;;967.13;899.60;;;;;;;;;;4996245;28;20044;-61
2023/06/21 02:11:03;;;;;;;980.77;912.40;;;;;;;;;;5001607;28;20472;-61
2023/06/21 02:13:28;;;;;;;972.67;904.30;;;;;;;;;;5013082;28;20049;-62
2023/06/21 02:15:54;;;;;;;972.33;904.20;;;;;;;;;;5013948;28;20473;-62
2023/06/21 02:18:23;;;;;;;966.33;898.37;;;;;;;;;;4996181;28;20038;-62
2023/06/21 02:20:49;;;;;;;976.53;908.27;;;;;;;;;;5012603;28;20061;-61
2023/06/21 02:23:15;;;;;;;980.10;911.67;;;;;;;;;;5013254;28;20652;-62
2023/06/21 02:25:42;;;;;;;973.10;904.20;;;;;;;;;;5012913;28;20164;-62
2023/06/21 02:28:07;;;;;;;966.00;898.20;;;;;;;;;;5015013;28;20447;-62
2023/06/21 02:30:34;;;;;;;970.90;902.73;;;;;;;;;;5011760;28;20595;-62
2023/06/21 02:33:02;;;;;;;965.73;897.70;;;;;;;;;;4997982;28;20098;-62
2023/06/21 02:35:27;;;;;;;965.77;897.93;;;;;;;;;;5001591;28;20038;-62
2023/06/21 02:37:53;;;;;;;965.83;898.17;;;;;;;;;;4997058;28;20036;-62
2023/06/21 02:40:18;;;;;;;968.73;900.63;;;;;;;;;;5014432;28;20065;-62
2023/06/21 02:42:44;;;;;;;965.77;897.90;;;;;;;;;;5005391;28;20029;-62
2023/06/21 02:45:10;;;;;;;975.27;907.10;;;;;;;;;;5013458;28;20099;-62
2023/06/21 02:47:36;;;;;;;970.90;903.00;;;;;;;;;;5014403;28;20128;-62
2023/06/21 02:50:02;;;;;;;965.13;897.43;;;;;;;;;;5013529;28;20038;-62
2023/06/21 02:52:27;;;;;;;969.43;901.27;;;;;;;;;;4996115;28;20089;-63
2023/06/21 02:54:53;;;;;;;964.53;896.90;;;;;;;;;;5014725;28;20034;-62
2023/06/21 02:57:19;;;;;;;972.83;905.03;;;;;;;;;;4997105;28;20060;-62
2023/06/21 02:59:44;;;;;;;980.00;911.43;;;;;;;;;;5011242;28;20038;-62
2023/06/21 03:02:10;;;;;;;984.73;916.17;;;;;;;;;;5001474;28;20993;-61
2023/06/21 03:04:35;;;;;;;975.37;907.47;;;;;;;;;;4997191;28;20056;-63
2023/06/21 03:07:01;;;;;;;979.37;911.27;;;;;;;;;;5012375;28;20038;-63
2023/06/21 03:09:27;;;;;;;980.93;912.33;;;;;;;;;;5009685;28;20520;-62
2023/06/21 03:11:52;;;;;;;973.83;905.73;;;;;;;;;;5012946;28;20041;-62
2023/06/21 03:14:18;;;;;;;979.70;911.23;;;;;;;;;;5012764;28;20041;-62
2023/06/21 03:16:45;;;;;;;980.67;912.57;;;;;;;;;;4999931;28;20076;-62
2023/06/21 03:19:11;;;;;;;981.40;913.10;;;;;;;;;;4996464;28;20038;-62
2023/06/21 03:21:36;;;;;;;986.57;917.93;;;;;;;;;;5011981;28;20631;-62
2023/06/21 03:24:03;;;;;;;983.80;915.03;;;;;;;;;;5013337;28;20492;-63
2023/06/21 03:26:29;;;;;;;979.87;911.37;;;;;;;;;;4997531;28;20045;-62
2023/06/21 03:28:57;;;;;;;982.57;914.10;;;;;;;;;;4997795;28;20091;-62
2023/06/21 03:31:23;;;;;;;982.37;913.50;;;;;;;;;;5011673;28;20029;-64
2023/06/21 03:33:49;;;;;;;981.47;912.80;;;;;;;;;;4998253;28;20042;-62
2023/06/21 03:36:15;;;;;;;981.13;912.57;;;;;;;;;;4996840;28;20097;-62
2023/06/21 03:38:41;;;;;;;985.07;916.63;;;;;;;;;;5013494;28;20049;-62
2023/06/21 03:41:06;;;;;;;983.40;914.77;;;;;;;;;;4995836;28;20041;-62
2023/06/21 03:43:31;;;;;;;983.00;914.53;;;;;;;;;;5012632;28;20481;-63
2023/06/21 03:46:00;;;;;;;980.53;912.20;;;;;;;;;;4994712;28;20048;-62
2023/06/21 03:48:26;;;;;;;981.60;912.97;;;;;;;;;;5003892;28;20733;-62
2023/06/21 03:50:52;;;;;;;987.70;919.40;;;;;;;;;;5011874;28;20052;-62
2023/06/21 03:53:17;;;;;;;989.13;920.47;;;;;;;;;;5011576;28;20851;-62
2023/06/21 03:55:43;;;;;;;992.93;924.17;;;;;;;;;;4997124;28;20038;-62
2023/06/21 03:58:09;;;;;;;985.83;917.33;;;;;;;;;;4997862;28;20064;-63
2023/06/21 04:00:35;;;;;;;995.93;926.83;;;;;;;;;;4992541;28;20542;-62
2023/06/21 04:03:01;;;;;;;994.00;925.23;;;;;;;;;;4992981;28;20073;-62
2023/06/21 04:05:26;;;;;;;994.87;925.90;;;;;;;;;;5003814;28;20364;-61
2023/06/21 04:07:52;;;;;;;985.87;917.03;;;;;;;;;;4996393;28;20040;-63
2023/06/21 04:10:17;;;;;;;992.57;923.37;;;;;;;;;;4999299;28;20096;-62
2023/06/21 04:12:43;;;;;;;999.60;930.50;;;;;;;;;;5013950;28;20558;-62
2023/06/21 04:15:09;;;;;;;997.93;928.90;;;;;;;;;;5010259;28;20488;-62
2023/06/21 04:17:37;;;;;;;1002.20;932.63;;;;;;;;;;5004156;28;20022;-63
2023/06/21 04:20:07;;;;;;;997.80;928.70;;;;;;;;;;4996093;28;20057;-62
2023/06/21 04:22:33;;;;;;;997.97;928.67;;;;;;;;;;5010812;28;20026;-62
2023/06/21 04:24:58;;;;;;;994.37;925.47;;;;;;;;;;4995332;28;20479;-62
2023/06/21 04:27:24;;;;;;;993.40;924.37;;;;;;;;;;5011899;28;20100;-61
2023/06/21 04:29:50;;;;;;;991.07;922.27;;;;;;;;;;4998111;28;20216;-61
2023/06/21 04:32:16;;;;;;;997.20;927.83;;;;;;;;;;5011963;28;20042;-61
2023/06/21 04:34:47;;;;;;;992.93;924.10;;;;;;;;;;5012205;28;20480;-61
2023/06/21 04:37:13;;;;;;;987.20;918.10;;;;;;;;;;5011102;28;20095;-63
2023/06/21 04:39:39;;;;;;;994.97;925.80;;;;;;;;;;5011722;28;20519;-61
2023/06/21 04:42:04;;;;;;;993.73;924.67;;;;;;;;;;5012685;28;20038;-62
2023/06/21 04:44:30;;;;;;;1006.17;936.60;;;;;;;;;;5010312;28;20117;-63
2023/06/21 04:46:55;;;;;;;1004.33;934.33;;;;;;;;;;5013953;28;20034;-62
2023/06/21 04:49:25;;;;;;;1000.03;930.50;;;;;;;;;;5015022;28;20034;-62
2023/06/21 04:51:52;;;;;;;1002.23;932.77;;;;;;;;;;5011585;28;20112;-61
2023/06/21 04:54:17;;;;;;;1004.33;934.53;;;;;;;;;;5012459;28;20038;-61
2023/06/21 04:56:43;;;;;;;1007.60;937.30;;;;;;;;;;5011560;28;20088;-62
2023/06/21 04:59:09;;;;;;;1004.17;934.47;;;;;;;;;;5011630;28;20033;-62
2023/06/21 05:01:34;;;;;;;1008.90;939.57;;;;;;;;;;5011726;28;20602;-61
2023/06/21 05:03:59;;;;;;;1015.17;945.33;;;;;;;;;;5011185;28;20598;-63
2023/06/21 05:06:25;;;;;;;1018.30;947.83;;;;;;;;;;5010656;28;20422;-64
2023/06/21 05:08:51;;;;;;;1015.47;945.23;;;;;;;;;;5009369;28;20048;-62
2023/06/21 05:11:20;;;;;;;1018.10;947.67;;;;;;;;;;5011483;28;20029;-62
2023/06/21 05:13:45;;;;;;;1016.60;946.37;;;;;;;;;;5010611;28;20026;-62
2023/06/21 05:16:11;;;;;;;1017.17;947.10;;;;;;;;;;5009574;28;20038;-60
2023/06/21 05:18:38;;;;;;;1026.83;955.97;;;;;;;;;;5008908;28;20391;-62
2023/06/21 05:21:04;;;;;;;1022.37;951.90;;;;;;;;;;5009684;28;20061;-63
2023/06/21 05:23:29;;;;;;;1031.97;960.80;;;;;;;;;;5001006;28;20514;-62
2023/06/21 05:25:55;;;;;;;1035.47;964.30;;;;;;;;;;5008898;28;20520;-62
2023/06/21 05:28:20;;;;;;;1029.63;958.90;;;;;;;;;;5007456;28;20536;-62
2023/06/21 05:30:46;;;;;;;1030.03;959.43;;;;;;;;;;5007894;28;20056;-62
2023/06/21 05:33:11;;;;;;;1043.33;971.93;;;;;;;;;;5008949;28;20575;-62
2023/06/21 05:35:36;;;;;;;1046.10;974.90;;;;;;;;;;5010962;28;20407;-62
2023/06/21 05:38:02;;;;;;;1046.90;975.43;;;;;;;;;;4995778;28;20088;-61
2023/06/21 05:40:27;;;;;;;1050.63;979.17;;;;;;;;;;5009167;28;20030;-62
2023/06/21 05:42:53;;;;;;;1047.70;976.10;;;;;;;;;;5010409;28;20037;-61
2023/06/21 05:45:20;;;;;;;1044.93;973.63;;;;;;;;;;5009983;28;20525;-62
2023/06/21 05:47:45;;;;;;;1048.83;977.33;;;;;;;;;;5013411;28;20092;-61
2023/06/21 05:50:11;;;;;;;1048.43;976.80;;;;;;;;;;5014396;28;20037;-61
2023/06/21 05:52:36;;;;;;;1057.10;985.23;;;;;;;;;;4996595;28;20107;-61
2023/06/21 05:55:01;;;;;;;1061.90;989.17;;;;;;;;;;5011601;28;20055;-62
2023/06/21 05:57:27;;;;;;;1060.10;988.13;;;;;;;;;;5012345;28;20026;-62
2023/06/21 05:59:53;;;;;;;1066.87;994.43;;;;;;;;;;5011638;28;20489;-62
2023/06/21 06:02:19;;;;;;;1074.17;999.17;;;;;;;;;;5012294;28;20064;-62
2023/06/21 06:04:44;;;;;;;1073.67;998.70;;;;;;;;;;5012409;28;20536;-60
2023/06/21 06:07:12;;;;;;;1078.63;999.90;;;;;;;;;;5011759;28;20576;-62
2023/06/21 06:09:38;;;;;;;1087.50;999.90;;;;;;;;;;5010204;28;20041;-64
2023/06/21 06:12:03;;;;;;;1085.97;999.90;;;;;;;;;;5011813;28;20605;-62
2023/06/21 06:14:29;;;;;;;1087.83;999.90;;;;;;;;;;5011990;28;20404;-68
2023/06/21 06:16:54;;;;;;;1090.27;999.90;;;;;;;;;;5011044;28;20038;-67
2023/06/21 06:19:20;;;;;;;1092.00;999.90;;;;;;;;;;5012085;28;20153;-66
2023/06/21 06:21:45;;;;;;;1090.63;999.90;;;;;;;;;;5011998;28;20065;-66
2023/06/21 06:24:11;;;;;;;1090.10;999.90;;;;;;;;;;5012901;28;20074;-67
2023/06/21 06:26:36;;;;;;;1090.47;999.90;;;;;;;;;;5012959;28;20045;-67
2023/06/21 06:29:01;;;;;;;1098.97;999.90;;;;;;;;;;5013333;28;20096;-66
2023/06/21 06:31:29;;;;;;;1095.87;999.90;;;;;;;;;;5012318;28;20034;-66
2023/06/21 06:33:55;;;;;;;1091.37;999.90;;;;;;;;;;5012154;28;20080;-66
2023/06/21 06:36:20;;;;;;;1092.80;999.90;;;;;;;;;;5011419;28;20552;-67
2023/06/21 06:38:46;;;;;;;1095.40;999.90;;;;;;;;;;5011936;28;20056;-69
2023/06/21 06:41:12;;;;;;;1093.50;999.90;;;;;;;;;;5012330;28;20097;-67
2023/06/21 06:43:37;;;;;;;1102.87;999.90;;;;;;;;;;5014416;28;20042;-67
2023/06/21 06:46:03;;;;;;;1099.77;999.90;;;;;;;;;;5014331;28;20072;-68
2023/06/21 06:48:28;;;;;;;1100.20;999.90;;;;;;;;;;5012710;28;20501;-67
2023/06/21 06:50:54;;;;;;;1102.43;999.90;;;;;;;;;;5010614;28;20029;-65
2023/06/21 06:53:19;;;;;;;1108.90;999.90;;;;;;;;;;5013528;28;20048;-63
2023/06/21 06:55:45;;;;;;;1112.60;999.90;;;;;;;;;;5012514;28;20045;-64
2023/06/21 06:58:10;;;;;;;1112.97;999.90;;;;;;;;;;5011819;28;20030;-63
2023/06/21 07:00:35;;;;;;;1112.57;999.90;;;;;;;;;;5011329;28;20025;-64
2023/06/21 07:03:01;;;;;;;1148.97;999.90;;;;;;;;;;5011654;28;20485;-64
2023/06/21 07:05:26;;;;;;;1165.53;999.90;;;;;;;;;;5013918;28;20045;-66
2023/06/21 07:07:53;;;;;;;1144.37;999.90;;;;;;;;;;5011400;28;20037;-68
2023/06/21 07:10:21;;;;;;;1141.83;999.90;;;;;;;;;;5011512;28;20065;-63
2023/06/21 07:12:46;;;;;;;1152.97;999.90;;;;;;;;;;5013040;28;20034;-64
2023/06/21 07:15:12;;;;;;;1154.57;999.90;;;;;;;;;;5012253;28;20527;-63
2023/06/21 07:17:37;;;;;;;1156.77;999.90;;;;;;;;;;5012267;28;20045;-65
2023/06/21 07:20:06;;;;;;;1160.20;999.90;;;;;;;;;;4994810;28;20500;-64
2023/06/21 07:22:32;;;;;;;1164.87;999.90;;;;;;;;;;5008634;28;20109;-64
2023/06/21 07:24:57;;;;;;;1170.43;999.90;;;;;;;;;;5005451;28;20076;-64
2023/06/21 07:27:25;;;;;;;1167.53;999.90;;;;;;;;;;5013207;28;20521;-65
2023/06/21 07:29:50;;;;;;;1163.90;999.90;;;;;;;;;;5011798;28;20553;-65
2023/06/21 07:32:16;;;;;;;1160.50;999.90;;;;;;;;;;5012216;28;20037;-66
2023/06/21 07:34:41;;;;;;;1162.63;999.90;;;;;;;;;;5012481;28;20037;-65
2023/06/21 07:37:07;;;;;;;1164.20;999.90;;;;;;;;;;5012064;28;20518;-65
2023/06/21 07:39:32;;;;;;;1170.50;999.90;;;;;;;;;;5011531;28;20443;-65
2023/06/21 07:42:01;;;;;;;1175.37;999.90;;;;;;;;;;5012035;28;20484;-66
2023/06/21 07:44:26;;;;;;;1185.63;999.90;;;;;;;;;;5013738;28;20026;-66
2023/06/21 07:46:52;;;;;;;1208.93;999.90;;;;;;;;;;5011147;28;20056;-65
2023/06/21 07:49:18;;;;;;;1220.10;999.90;;;;;;;;;;5009510;28;20428;-65
2023/06/21 07:51:43;;;;;;;1210.43;999.90;;;;;;;;;;5011158;28;20068;-66
2023/06/21 07:54:09;;;;;;;1214.23;999.90;;;;;;;;;;5011733;28;20041;-66
2023/06/21 07:56:34;;;;;;;1216.10;999.90;;;;;;;;;;5011757;28;20041;-66
2023/06/21 07:58:59;;;;;;;1216.53;999.90;;;;;;;;;;5012385;28;20025;-65
2023/06/21 08:01:25;;;;;;;1203.03;999.90;;;;;;;;;;5013725;28;20431;-63
2023/06/21 08:03:50;;;;;;;1204.17;999.90;;;;;;;;;;5010525;28;20037;-64
2023/06/21 08:06:16;;;;;;;1201.87;999.90;;;;;;;;;;5009183;28;20594;-64
2023/06/21 08:08:41;;;;;;;1214.20;999.90;;;;;;;;;;5011683;28;20716;-63
2023/06/21 08:11:09;;;;;;;1230.00;999.90;;;;;;;;;;5010665;28;20046;-63
2023/06/21 08:13:38;;;;;;;1222.63;999.90;;;;;;;;;;5011551;28;20079;-64
2023/06/21 08:16:03;;;;;;;1236.47;999.90;;;;;;;;;;5010772;28;20047;-65
2023/06/21 08:18:29;;;;;;;1235.57;999.90;;;;;;;;;;5010835;28;20444;-65
2023/06/21 08:20:54;;;;;;;1233.37;999.90;;;;;;;;;;5011997;28;20091;-65
2023/06/21 08:23:19;;;;;;;1235.47;999.90;;;;;;;;;;5013606;28;20639;-66
2023/06/21 08:25:48;;;;;;;1228.43;999.90;;;;;;;;;;5012184;28;20481;-65
2023/06/21 08:28:14;;;;;;;1231.53;999.90;;;;;;;;;;5011809;28;20044;-65
2023/06/21 08:30:39;;;;;;;1234.33;999.90;;;;;;;;;;5012151;28;20484;-65
2023/06/21 08:33:05;;;;;;;1232.90;999.90;;;;;;;;;;5011480;28;20397;-66
2023/06/21 08:35:30;;;;;;;1228.70;999.90;;;;;;;;;;5019998;28;20567;-65
2023/06/21 08:37:57;;;;;;;1229.37;999.90;;;;;;;;;;5010779;28;20052;-70
2023/06/21 08:40:27;;;;;;;1228.00;999.90;;;;;;;;;;5014958;28;20037;-65
2023/06/21 08:42:53;;;;;;;1222.77;999.90;;;;;;;;;;5011062;28;20068;-64
2023/06/21 08:45:19;;;;;;;1233.47;999.90;;;;;;;;;;5012100;28;20060;-62
2023/06/21 08:47:45;;;;;;;1235.90;999.90;;;;;;;;;;5010864;28;20904;-65
2023/06/21 08:50:13;;;;;;;1228.93;999.90;;;;;;;;;;5011466;28;20029;-65
2023/06/21 08:52:41;;;;;;;1224.20;999.90;;;;;;;;;;5012484;28;20037;-64
2023/06/21 08:55:08;;;;;;;1228.20;999.90;;;;;;;;;;5007747;28;20144;-64
2023/06/21 08:57:38;;;;;;;1226.17;999.90;;;;;;;;;;5012321;28;20547;-65
2023/06/21 09:00:05;;;;;;;1226.60;999.90;;;;;;;;;;5011698;28;20120;-65
2023/06/21 09:02:36;;;;;;;1225.90;999.90;;;;;;;;;;5009757;28;20038;-65
2023/06/21 09:05:06;;;;;;;1225.67;999.90;;;;;;;;;;5009684;28;20062;-64
2023/06/21 09:07:33;;;;;;;1232.30;999.90;;;;;;;;;;5009800;28;20163;-65
2023/06/21 09:09:59;;;;;;;1231.43;999.90;;;;;;;;;;4994537;28;20029;-64
2023/06/21 09:12:27;;;;;;;1243.70;999.90;;;;;;;;;;5009070;28;20046;-64
2023/06/21 09:14:53;;;;;;;1248.03;999.90;;;;;;;;;;5008699;28;20307;-65
2023/06/21 09:17:19;;;;;;;1237.13;999.90;;;;;;;;;;5009428;28;20062;-65
2023/06/21 09:19:44;;;;;;;1243.05;999.90;;;;;;;;;;5007645;28;20042;-64
2023/06/21 09:22:11;;;;;;;1243.88;999.90;;;;;;;;;;5010650;28;20411;-65
2023/06/21 09:24:36;;;;;;;1248.88;999.90;;;;;;;;;;5010534;28;20029;-66
2023/06/21 09:27:02;;;;;;;1242.70;999.90;;;;;;;;;;5012649;28;20032;-66
2023/06/21 09:29:27;;;;;;;1248.50;999.90;;;;;;;;;;5011719;28;20049;-66
2023/06/21 09:31:53;;;;;;;1249.88;999.90;;;;;;;;;;5014128;28;20065;-68
2023/06/21 09:34:18;;;;;;;1256.78;999.90;;;;;;;;;;5013656;28;20476;-68
2023/06/21 09:36:44;;;;;;;1236.97;999.90;;;;;;;;;;5012273;28;20049;-68
2023/06/21 09:39:10;;;;;;;1246.93;999.90;;;;;;;;;;4997522;28;20722;-68
2023/06/21 09:41:36;;;;;;;1261.03;999.90;;;;;;;;;;5014114;28;20052;-65
2023/06/21 09:44:01;;;;;;;1260.50;999.90;;;;;;;;;;5014072;28;20472;-67
2023/06/21 09:46:27;;;;;;;1255.38;999.90;;;;;;;;;;5017673;28;20038;-69
2023/06/21 09:48:52;;;;;;;1248.63;999.90;;;;;;;;;;5015235;28;20128;-70
2023/06/21 09:51:22;;;;;;;1261.50;999.90;;;;;;;;;;5014832;28;20041;-68
2023/06/21 09:53:50;;;;;;;1259.25;999.90;;;;;;;;;;5015485;28;20328;-67
2023/06/21 09:56:17;;;;;;;1269.57;999.90;;;;;;;;;;5016774;28;20052;-66
2023/06/21 09:58:43;;;;;;;1264.15;999.90;;;;;;;;;;5021837;28;20128;-66
2023/06/21 10:01:12;;;;;;;1263.50;999.90;;;;;;;;;;5014727;28;20121;-67
2023/06/21 10:03:38;;;;;;;1259.95;999.90;;;;;;;;;;5014349;28;20033;-66
2023/06/21 10:06:03;;;;;;;1269.82;999.90;;;;;;;;;;5012942;28;20342;-65
2023/06/21 10:08:31;;;;;;;1272.03;999.90;;;;;;;;;;5014648;28;20649;-68
2023/06/21 10:10:57;;;;;;;1259.63;999.90;;;;;;;;;;5013908;28;20160;-67
2023/06/21 10:13:29;;;;;;;1274.30;999.90;;;;;;;;;;5013567;28;20128;-67
2023/06/21 10:15:56;;;;;;;1275.95;999.90;;;;;;;;;;5013511;28;20049;-67
2023/06/21 10:18:21;;;;;;;1275.28;999.90;;;;;;;;;;5015739;28;20060;-69
2023/06/21 10:20:52;;;;;;;1266.00;999.90;;;;;;;;;;5014920;28;20397;-67
2023/06/21 10:23:18;;;;;;;1276.35;999.90;;;;;;;;;;5013516;28;20041;-67
2023/06/21 10:25:46;;;;;;;1278.20;999.90;;;;;;;;;;5012751;28;20437;-67
2023/06/21 10:28:13;;;;;;;1271.88;999.90;;;;;;;;;;5012276;28;20033;-67
2023/06/21 10:30:39;;;;;;;1273.68;999.90;;;;;;;;;;5013120;28;20053;-68
2023/06/21 10:33:06;;;;;;;1270.72;999.90;;;;;;;;;;5012283;28;20052;-68
2023/06/21 10:35:33;;;;;;;1274.00;999.90;;;;;;;;;;5014292;28;20038;-67
2023/06/21 10:38:03;;;;;;;1281.50;999.90;;;;;;;;;;5013284;28;20373;-65
2023/06/21 10:40:28;;;;;;;1274.03;999.90;;;;;;;;;;5013254;28;20036;-66
2023/06/21 10:42:56;;;;;;;1276.55;999.90;;;;;;;;;;5013394;28;20038;-66
2023/06/21 10:45:21;;;;;;;1268.65;999.90;;;;;;;;;;5011881;28;20445;-66
2023/06/21 10:47:47;;;;;;;1274.57;999.90;;;;;;;;;;5014061;28;20028;-65
2023/06/21 10:50:13;;;;;;;1263.82;999.90;;;;;;;;;;5011120;28;20454;-63
2023/06/21 10:52:39;;;;;;;1268.95;999.90;;;;;;;;;;5013522;28;20048;-63
2023/06/21 10:55:04;;;;;;;1272.95;999.90;;;;;;;;;;5012422;28;20112;-62
2023/06/21 10:57:31;;;;;;;1280.88;999.90;;;;;;;;;;5011313;28;20029;-63
2023/06/21 10:59:59;;;;;;;1277.03;999.90;;;;;;;;;;5005310;28;20136;-63
2023/06/21 11:02:24;;;;;;;1282.85;999.90;;;;;;;;;;5012387;28;20197;-64
2023/06/21 11:05:09;;;;;;;1282.40;999.90;;;;;;;;;;5013412;28;20125;-64
2023/06/21 11:07:34;;;;;;;1273.18;999.90;;;;;;;;;;5012544;28;20029;-65
2023/06/21 11:10:03;;;;;;;1273.57;999.90;;;;;;;;;;5012050;28;20042;-64
2023/06/21 11:12:29;;;;;;;1289.13;999.90;;;;;;;;;;5012231;28;20030;-64
2023/06/21 11:14:55;;;;;;;1277.57;999.90;;;;;;;;;;5011512;28;20586;-64
2023/06/21 11:17:24;;;;;;;1275.38;999.90;;;;;;;;;;5013806;28;20498;-63
2023/06/21 11:19:49;;;;;;;1287.65;999.90;;;;;;;;;;5011089;28;20156;-63
2023/06/21 11:22:21;;;;;;;1270.10;999.90;;;;;;;;;;5012549;28;20511;-64
2023/06/21 11:24:50;;;;;;;1279.00;999.90;;;;;;;;;;5011461;28;20125;-64
2023/06/21 11:27:16;;;;;;;1271.65;999.90;;;;;;;;;;5009982;28;20148;-65
2023/06/21 11:29:41;;;;;;;1288.63;999.90;;;;;;;;;;5012538;28;20104;-68
2023/06/21 11:32:11;;;;;;;1282.20;999.90;;;;;;;;;;5012580;28;20052;-64
2023/06/21 11:34:37;;;;;;;1288.55;999.90;;;;;;;;;;5010049;28;20029;-64
2023/06/21 11:37:22;;;;;;;1283.93;999.90;;;;;;;;;;5008840;28;20132;-66
2023/06/21 11:39:56;;;;;;;1293.93;999.90;;;;;;;;;;5002656;28;20042;-68
2023/06/21 11:42:25;;;;;;;1281.85;999.90;;;;;;;;;;5013134;28;20048;-68
2023/06/21 11:44:53;;;;;;;1286.28;999.90;;;;;;;;;;5012917;28;20038;-68
2023/06/21 11:47:18;;;;;;;1288.07;999.90;;;;;;;;;;5012729;28;20387;-68
2023/06/21 11:49:48;;;;;;;1287.07;999.90;;;;;;;;;;5011890;28;20034;-68
2023/06/21 11:52:13;;;;;;;1291.22;999.90;;;;;;;;;;5012246;28;20999;-68
2023/06/21 11:54:39;;;;;;;1288.97;999.90;;;;;;;;;;5011064;28;20093;-69
2023/06/21 11:57:07;;;;;;;1288.22;999.90;;;;;;;;;;5011030;28;20038;-69
2023/06/21 11:59:34;;;;;;;1291.57;999.90;;;;;;;;;;5010233;28;20061;-69
2023/06/21 12:02:13;;;;;;;1292.90;999.90;;;;;;;;;;5009510;28;20037;-68
2023/06/21 12:04:39;;;;;;;1293.95;999.90;;;;;;;;;;5008701;28;20037;-68
2023/06/21 12:07:04;;;;;;;1292.72;999.90;;;;;;;;;;5008881;28;20061;-68
2023/06/21 12:09:30;;;;;;;1286.78;999.90;;;;;;;;;;5010242;28;20133;-67
2023/06/21 12:11:57;;;;;;;1278.07;999.90;;;;;;;;;;5011345;28;20029;-68
2023/06/21 12:14:22;;;;;;;1284.43;999.90;;;;;;;;;;5010648;28;20044;-68
2023/06/21 12:16:51;;;;;;;1282.32;999.90;;;;;;;;;;5010522;28;20038;-68
2023/06/21 12:19:16;;;;;;;1281.75;999.90;;;;;;;;;;5009241;28;20571;-67
2023/06/21 12:21:42;;;;;;;1277.95;999.90;;;;;;;;;;5009983;28;20106;-67
2023/06/21 12:24:07;;;;;;;1279.15;999.90;;;;;;;;;;5011576;28;20041;-67
2023/06/21 12:26:45;;;;;;;1286.03;999.90;;;;;;;;;;5011301;28;20046;-69
2023/06/21 12:29:10;;;;;;;1289.03;999.90;;;;;;;;;;5012726;28;20117;-65
2023/06/21 12:31:36;;;;;;;1298.10;999.90;;;;;;;;;;5009898;28;20367;-63
2023/06/21 12:34:02;;;;;;;1298.20;999.90;;;;;;;;;;5011525;28;20036;-64
2023/06/21 12:36:29;;;;;;;1304.25;999.90;;;;;;;;;;5012441;28;20060;-63
2023/06/21 12:38:56;;;;;;;1304.00;999.90;;;;;;;;;;5010007;28;20133;-65
2023/06/21 12:41:22;;;;;;;1310.97;999.90;;;;;;;;;;5011512;28;20029;-65
2023/06/21 12:43:49;;;;;;;1302.43;999.90;;;;;;;;;;5008307;28;20036;-64
2023/06/21 12:46:15;;;;;;;1309.85;999.90;;;;;;;;;;5009508;28;20029;-64
2023/06/21 12:48:43;;;;;;;1311.07;999.90;;;;;;;;;;5010587;28;20041;-65
2023/06/21 12:51:08;;;;;;;1312.60;999.90;;;;;;;;;;5013764;28;20037;-61
2023/06/21 12:53:39;;;;;;;1309.05;999.90;;;;;;;;;;5008494;28;20086;-59
2023/06/21 12:56:10;;;;;;;1321.07;999.90;;;;;;;;;;5009481;28;20520;-64
2023/06/21 12:58:36;;;;;;;1316.88;999.90;;;;;;;;;;5009537;28;20159;-67
2023/06/21 13:01:02;;;;;;;1316.55;999.90;;;;;;;;;;5009186;28;20034;-64
2023/06/21 13:03:29;;;;;;;1319.20;999.90;;;;;;;;;;5011504;28;20124;-62
2023/06/21 13:05:55;;;;;;;1330.53;999.90;;;;;;;;;;5009662;28;20499;-65
2023/06/21 13:08:23;;;;;;;1332.35;999.90;;;;;;;;;;5009293;28;20046;-64
2023/06/21 13:10:51;;;;;;;1325.68;999.90;;;;;;;;;;5010541;28;20040;-66
2023/06/21 13:13:16;;;;;;;1325.45;999.90;;;;;;;;;;5010040;28;20574;-66
2023/06/21 13:15:42;;;;;;;1324.63;999.90;;;;;;;;;;5010503;28;20042;-66
2023/06/21 13:18:08;;;;;;;1330.13;999.90;;;;;;;;;;5009238;28;20034;-67
2023/06/21 13:20:35;;;;;;;1321.32;999.90;;;;;;;;;;5009624;28;20054;-66
2023/06/21 13:23:01;;;;;;;1323.40;999.90;;;;;;;;;;5010315;28;20056;-66
2023/06/21 13:25:26;;;;;;;1326.53;999.90;;;;;;;;;;5003992;28;20046;-65
2023/06/21 13:27:51;;;;;;;1331.63;999.90;;;;;;;;;;5007648;28;20197;-66
2023/06/21 13:30:17;;;;;;;1331.40;999.90;;;;;;;;;;5007493;28;20084;-67
2023/06/21 13:32:42;;;;;;;1330.60;999.90;;;;;;;;;;5006629;28;20052;-68
2023/06/21 13:35:08;;;;;;;1329.68;999.90;;;;;;;;;;5008223;28;20025;-67
2023/06/21 13:37:33;;;;;;;1338.55;999.90;;;;;;;;;;5009267;28;20034;-68
2023/06/21 13:39:58;;;;;;;1343.15;999.90;;;;;;;;;;5010927;28;20096;-69